sensor_id;sensor_type;location;lat;lon;timestamp;pressure;altitude;pressure_sealevel;temperature;humidity
27980;BME280;15315;50.836;4.430;2023-04-26T00:01:10;101445.25;;;10.84;60.10
27980;BME280;15315;50.836;4.430;2023-04-26T00:11:11;101435.59;;;10.80;59.87
27980;BME280;15315;50.836;4.430;2023-04-26T00:21:11;101440.50;;;10.74;59.79
27980;BME280;15315;50.836;4.430;2023-04-26T00:31:14;101438.56;;;10.46;59.82
27980;BME280;15315;50.836;4.430;2023-04-26T00:41:14;101446.84;;;10.26;60.99
27980;BME280;15315;50.836;4.430;2023-04-26T00:51:15;101444.19;;;9.95;61.76
27980;BME280;15315;50.836;4.430;2023-04-26T01:01:16;101441.50;;;9.62;63.29
27980;BME280;15315;50.836;4.430;2023-04-26T01:11:16;101445.91;;;9.47;64.08
27980;BME280;15315;50.836;4.430;2023-04-26T01:21:19;101452.59;;;9.88;61.44
27980;BME280;15315;50.836;4.430;2023-04-26T01:31:21;101447.81;;;9.94;61.31
27980;BME280;15315;50.836;4.430;2023-04-26T01:41:21;101439.66;;;9.79;61.03
27980;BME280;15315;50.836;4.430;2023-04-26T01:51:22;101442.88;;;9.03;63.49
27980;BME280;15315;50.836;4.430;2023-04-26T02:01:22;101443.75;;;8.70;65.69
27980;BME280;15315;50.836;4.430;2023-04-26T02:11:23;101420.63;;;9.34;62.57
27980;BME280;15315;50.836;4.430;2023-04-26T02:21:24;101419.94;;;9.13;62.31
27980;BME280;15315;50.836;4.430;2023-04-26T02:31:24;101413.94;;;9.08;62.73
27980;BME280;15315;50.836;4.430;2023-04-26T02:41:24;101410.94;;;8.97;63.85
27980;BME280;15315;50.836;4.430;2023-04-26T02:51:25;101402.50;;;9.38;61.89
27980;BME280;15315;50.836;4.430;2023-04-26T03:01:26;101408.13;;;9.33;61.49
27980;BME280;15315;50.836;4.430;2023-04-26T03:11:26;101414.50;;;8.63;64.24
27980;BME280;15315;50.836;4.430;2023-04-26T03:21:26;101409.13;;;8.63;64.40
27980;BME280;15315;50.836;4.430;2023-04-26T03:31:27;101407.53;;;8.77;62.99
27980;BME280;15315;50.836;4.430;2023-04-26T03:41:27;101409.19;;;8.79;62.51
27980;BME280;15315;50.836;4.430;2023-04-26T03:51:27;101402.75;;;8.13;65.98
27980;BME280;15315;50.836;4.430;2023-04-26T04:01:28;101396.13;;;8.02;67.14
27980;BME280;15315;50.836;4.430;2023-04-26T04:11:28;101391.72;;;8.71;62.97
27980;BME280;15315;50.836;4.430;2023-04-26T04:21:29;101393.69;;;8.33;64.83
27980;BME280;15315;50.836;4.430;2023-04-26T04:31:29;101394.00;;;8.78;64.62
27980;BME280;15315;50.836;4.430;2023-04-26T04:41:30;101395.44;;;9.02;62.86
27980;BME280;15315;50.836;4.430;2023-04-26T04:51:31;101401.06;;;8.98;62.66
27980;BME280;15315;50.836;4.430;2023-04-26T05:01:32;101405.59;;;8.44;66.64
27980;BME280;15315;50.836;4.430;2023-04-26T05:11:32;101401.31;;;9.10;64.81
27980;BME280;15315;50.836;4.430;2023-04-26T05:21:32;101414.56;;;9.31;63.89
27980;BME280;15315;50.836;4.430;2023-04-26T05:31:33;101417.56;;;9.24;64.79
27980;BME280;15315;50.836;4.430;2023-04-26T05:41:33;101417.03;;;9.51;65.70
27980;BME280;15315;50.836;4.430;2023-04-26T05:51:34;101433.41;;;9.79;65.79
27980;BME280;15315;50.836;4.430;2023-04-26T06:01:34;101442.63;;;10.22;64.58
27980;BME280;15315;50.836;4.430;2023-04-26T06:11:34;101443.38;;;10.55;64.33
27980;BME280;15315;50.836;4.430;2023-04-26T06:21:35;101448.88;;;10.54;66.31
27980;BME280;15315;50.836;4.430;2023-04-26T06:31:35;101455.94;;;11.30;63.69
27980;BME280;15315;50.836;4.430;2023-04-26T06:41:36;101451.03;;;10.92;65.73
27980;BME280;15315;50.836;4.430;2023-04-26T06:51:36;101446.00;;;11.44;63.46
27980;BME280;15315;50.836;4.430;2023-04-26T07:01:37;101433.75;;;12.36;61.65
27980;BME280;15315;50.836;4.430;2023-04-26T07:11:38;101441.06;;;12.75;59.16
27980;BME280;15315;50.836;4.430;2023-04-26T07:21:38;101439.50;;;12.97;58.36
27980;BME280;15315;50.836;4.430;2023-04-26T07:31:38;101439.97;;;13.17;56.88
27980;BME280;15315;50.836;4.430;2023-04-26T07:41:39;101451.09;;;12.99;55.75
27980;BME280;15315;50.836;4.430;2023-04-26T07:51:42;101449.97;;;13.54;53.64
27980;BME280;15315;50.836;4.430;2023-04-26T08:01:43;101450.16;;;13.38;54.22
27980;BME280;15315;50.836;4.430;2023-04-26T08:11:43;101454.47;;;13.03;51.66
27980;BME280;15315;50.836;4.430;2023-04-26T08:21:44;101444.31;;;13.44;51.14
27980;BME280;15315;50.836;4.430;2023-04-26T08:31:44;101438.03;;;13.19;50.28
27980;BME280;15315;50.836;4.430;2023-04-26T08:41:49;101430.06;;;12.78;49.39
27980;BME280;15315;50.836;4.430;2023-04-26T08:51:52;101419.94;;;13.19;49.12
27980;BME280;15315;50.836;4.430;2023-04-26T09:01:54;101408.56;;;13.52;47.18
27980;BME280;15315;50.836;4.430;2023-04-26T09:11:59;101413.44;;;14.45;44.88
27980;BME280;15315;50.836;4.430;2023-04-26T09:22:00;101417.44;;;13.29;44.30
27980;BME280;15315;50.836;4.430;2023-04-26T09:32:01;101415.34;;;13.95;44.25
27980;BME280;15315;50.836;4.430;2023-04-26T09:42:08;101421.47;;;14.10;44.14
27980;BME280;15315;50.836;4.430;2023-04-26T09:52:09;101429.41;;;14.00;43.18
27980;BME280;15315;50.836;4.430;2023-04-26T10:02:19;101412.31;;;14.71;42.81
27980;BME280;15315;50.836;4.430;2023-04-26T10:12:19;101406.53;;;15.67;41.63
27980;BME280;15315;50.836;4.430;2023-04-26T10:22:21;101400.44;;;15.64;41.12
27980;BME280;15315;50.836;4.430;2023-04-26T10:32:22;101393.22;;;15.29;40.13
27980;BME280;15315;50.836;4.430;2023-04-26T10:42:27;101380.94;;;14.91;39.28
27980;BME280;15315;50.836;4.430;2023-04-26T10:52:29;101358.91;;;15.84;37.90
27980;BME280;15315;50.836;4.430;2023-04-26T11:02:56;101355.09;;;15.53;38.38
27980;BME280;15315;50.836;4.430;2023-04-26T11:13:01;101337.69;;;16.21;37.97
27980;BME280;15315;50.836;4.430;2023-04-26T11:23:02;101332.56;;;15.07;39.36
27980;BME280;15315;50.836;4.430;2023-04-26T11:33:02;101343.63;;;15.38;38.14
27980;BME280;15315;50.836;4.430;2023-04-26T11:43:07;101327.94;;;15.53;36.79
27980;BME280;15315;50.836;4.430;2023-04-26T11:53:08;101319.53;;;15.67;37.25
27980;BME280;15315;50.836;4.430;2023-04-26T12:03:09;101324.16;;;16.41;36.42
27980;BME280;15315;50.836;4.430;2023-04-26T12:13:12;101321.00;;;15.71;37.35
27980;BME280;15315;50.836;4.430;2023-04-26T12:23:16;101329.16;;;15.16;38.29
27980;BME280;15315;50.836;4.430;2023-04-26T12:33:17;101311.06;;;15.92;38.29
27980;BME280;15315;50.836;4.430;2023-04-26T12:43:21;101323.06;;;14.90;38.33
27980;BME280;15315;50.836;4.430;2023-04-26T12:53:23;101315.00;;;15.88;37.61
27980;BME280;15315;50.836;4.430;2023-04-26T13:03:23;101315.31;;;16.17;36.73
27980;BME280;15315;50.836;4.430;2023-04-26T13:13:24;101310.81;;;16.59;37.24
27980;BME280;15315;50.836;4.430;2023-04-26T13:23:24;101299.72;;;16.92;36.56
27980;BME280;15315;50.836;4.430;2023-04-26T13:33:25;101299.13;;;16.89;35.72
27980;BME280;15315;50.836;4.430;2023-04-26T13:43:25;101304.78;;;17.97;35.13
27980;BME280;15315;50.836;4.430;2023-04-26T13:53:26;101293.00;;;17.97;34.94
27980;BME280;15315;50.836;4.430;2023-04-26T14:03:26;101290.81;;;18.00;34.69
27980;BME280;15315;50.836;4.430;2023-04-26T14:13:26;101291.72;;;18.68;33.93
27980;BME280;15315;50.836;4.430;2023-04-26T14:23:27;101275.78;;;18.63;33.89
27980;BME280;15315;50.836;4.430;2023-04-26T14:33:27;101273.84;;;16.77;34.76
27980;BME280;15315;50.836;4.430;2023-04-26T14:43:28;101272.97;;;16.56;35.86
27980;BME280;15315;50.836;4.430;2023-04-26T14:53:28;101264.09;;;17.05;34.84
27980;BME280;15315;50.836;4.430;2023-04-26T15:03:29;101263.13;;;16.23;35.08
27980;BME280;15315;50.836;4.430;2023-04-26T15:13:29;101253.66;;;18.09;34.49
27980;BME280;15315;50.836;4.430;2023-04-26T15:23:30;101241.69;;;17.01;34.30
27980;BME280;15315;50.836;4.430;2023-04-26T15:33:30;101242.13;;;17.76;33.49
27980;BME280;15315;50.836;4.430;2023-04-26T15:43:30;101233.25;;;18.03;33.50
27980;BME280;15315;50.836;4.430;2023-04-26T15:53:31;101246.91;;;18.13;33.26
27980;BME280;15315;50.836;4.430;2023-04-26T16:03:31;101247.63;;;18.24;32.11
27980;BME280;15315;50.836;4.430;2023-04-26T16:13:32;101235.81;;;18.43;32.38
27980;BME280;15315;50.836;4.430;2023-04-26T16:23:32;101236.91;;;20.50;31.08
27980;BME280;15315;50.836;4.430;2023-04-26T16:33:33;101238.09;;;19.13;32.06
27980;BME280;15315;50.836;4.430;2023-04-26T16:43:33;101237.09;;;18.48;32.67
27980;BME280;15315;50.836;4.430;2023-04-26T16:53:34;101240.03;;;19.30;32.20
27980;BME280;15315;50.836;4.430;2023-04-26T17:03:35;101240.97;;;18.55;32.80
27980;BME280;15315;50.836;4.430;2023-04-26T17:13:35;101238.94;;;20.13;31.04
27980;BME280;15315;50.836;4.430;2023-04-26T17:23:37;101247.88;;;21.69;30.64
27980;BME280;15315;50.836;4.430;2023-04-26T17:33:37;101245.78;;;21.55;30.20
27980;BME280;15315;50.836;4.430;2023-04-26T17:43:37;101262.59;;;21.60;30.25
27980;BME280;15315;50.836;4.430;2023-04-26T17:53:38;101271.75;;;19.95;30.69
27980;BME280;15315;50.836;4.430;2023-04-26T18:03:38;101281.38;;;18.33;32.96
27980;BME280;15315;50.836;4.430;2023-04-26T18:13:40;101289.28;;;16.97;35.21
27980;BME280;15315;50.836;4.430;2023-04-26T18:23:40;101298.19;;;16.99;35.86
27980;BME280;15315;50.836;4.430;2023-04-26T18:33:41;101301.78;;;16.38;36.32
27980;BME280;15315;50.836;4.430;2023-04-26T18:43:41;101319.16;;;15.61;38.27
27980;BME280;15315;50.836;4.430;2023-04-26T18:53:42;101326.44;;;15.16;39.44
27980;BME280;15315;50.836;4.430;2023-04-26T19:03:42;101332.69;;;14.83;40.90
27980;BME280;15315;50.836;4.430;2023-04-26T19:13:43;101344.66;;;14.80;41.55
27980;BME280;15315;50.836;4.430;2023-04-26T19:23:43;101351.84;;;15.15;41.17
27980;BME280;15315;50.836;4.430;2023-04-26T19:33:44;101361.22;;;15.00;41.28
27980;BME280;15315;50.836;4.430;2023-04-26T19:43:45;101366.69;;;14.65;42.06
27980;BME280;15315;50.836;4.430;2023-04-26T19:53:45;101358.25;;;14.33;42.93
27980;BME280;15315;50.836;4.430;2023-04-26T20:03:45;101359.75;;;14.61;42.22
27980;BME280;15315;50.836;4.430;2023-04-26T20:13:46;101378.53;;;13.30;44.78
27980;BME280;15315;50.836;4.430;2023-04-26T20:23:46;101376.25;;;13.49;44.43
27980;BME280;15315;50.836;4.430;2023-04-26T20:33:47;101388.28;;;13.20;45.22
27980;BME280;15315;50.836;4.430;2023-04-26T20:43:47;101398.44;;;12.66;46.19
27980;BME280;15315;50.836;4.430;2023-04-26T20:53:48;101403.91;;;12.64;46.42
27980;BME280;15315;50.836;4.430;2023-04-26T21:03:48;101404.78;;;13.29;45.50
27980;BME280;15315;50.836;4.430;2023-04-26T21:13:49;101398.06;;;13.60;45.20
27980;BME280;15315;50.836;4.430;2023-04-26T21:23:49;101410.41;;;13.26;45.86
27980;BME280;15315;50.836;4.430;2023-04-26T21:33:50;101404.88;;;13.15;46.38
27980;BME280;15315;50.836;4.430;2023-04-26T21:43:50;101408.56;;;13.27;46.41
27980;BME280;15315;50.836;4.430;2023-04-26T21:53:52;101407.81;;;13.50;46.21
27980;BME280;15315;50.836;4.430;2023-04-26T22:03:52;101390.56;;;13.51;46.54
27980;BME280;15315;50.836;4.430;2023-04-26T22:13:53;101395.13;;;13.13;47.16
27980;BME280;15315;50.836;4.430;2023-04-26T22:23:53;101406.16;;;13.10;47.29
27980;BME280;15315;50.836;4.430;2023-04-26T22:33:53;101410.72;;;13.22;47.26
27980;BME280;15315;50.836;4.430;2023-04-26T22:43:54;101398.69;;;13.26;47.42
27980;BME280;15315;50.836;4.430;2023-04-26T22:53:54;101418.41;;;13.15;47.25
27980;BME280;15315;50.836;4.430;2023-04-26T23:03:55;101434.09;;;13.10;48.05
27980;BME280;15315;50.836;4.430;2023-04-26T23:13:55;101436.81;;;13.10;48.09
27980;BME280;15315;50.836;4.430;2023-04-26T23:23:56;101451.59;;;12.92;48.62
27980;BME280;15315;50.836;4.430;2023-04-26T23:33:57;101455.59;;;12.86;50.06
27980;BME280;15315;50.836;4.430;2023-04-26T23:43:57;101463.06;;;12.29;52.34
27980;BME280;15315;50.836;4.430;2023-04-26T23:53:57;101470.16;;;12.30;53.12
